METAR Data
IDs: Format: Raw Decoded Include TAF

Data at: 0555 UTC 19 Aug 2019

METAR for:VTUK (Khon Kaen Arpt, --, TH)
Text:VTUK 190500Z 28008KT 210V330 9999 SCT030 BKN100 34/24 Q1008 NOSIG
Temperature: 34.0°C ( 93°F)
Dewpoint: 24.0°C ( 75°F) [RH = 56%]
Pressure (altimeter):29.76 inches Hg (1008.0 mb)
Winds:from the W (280 degrees) at 9 MPH (8 knots; 4.1 m/s)
Visibility:6 or more sm (10+ km)
Ceiling:10000 feet AGL
Clouds: scattered clouds at 3000 feet AGL, broken clouds at 10000 feet AGL
Text:VTUK 190400Z 28005KT 240V310 9999 FEW030 BKN100 32/24 Q1009 NOSIG
Temperature: 32.0°C ( 90°F)
Dewpoint: 24.0°C ( 75°F) [RH = 63%]
Pressure (altimeter):29.79 inches Hg (1009.0 mb)
Winds:from the W (280 degrees) at 6 MPH (5 knots; 2.6 m/s)
Visibility:6 or more sm (10+ km)
Ceiling:10000 feet AGL
Clouds: few clouds at 3000 feet AGL, broken clouds at 10000 feet AGL
Text:VTUK 190300Z 22004KT 130V260 9999 FEW030 BKN100 32/24 Q1009 NOSIG
Temperature: 32.0°C ( 90°F)
Dewpoint: 24.0°C ( 75°F) [RH = 63%]
Pressure (altimeter):29.79 inches Hg (1009.0 mb)
Winds:from the SW (220 degrees) at 5 MPH (4 knots; 2.1 m/s)
Visibility:6 or more sm (10+ km)
Ceiling:10000 feet AGL
Clouds: few clouds at 3000 feet AGL, broken clouds at 10000 feet AGL

METAR for:VTUD (Udon Thani Arpt, --, TH)
Text:VTUD 190500Z 26007KT 220V330 9999 SCT030 32/24 Q1008 NOSIG
Temperature: 32.0°C ( 90°F)
Dewpoint: 24.0°C ( 75°F) [RH = 63%]
Pressure (altimeter):29.76 inches Hg (1008.0 mb)
Winds:from the W (260 degrees) at 8 MPH (7 knots; 3.6 m/s)
Visibility:6 or more sm (10+ km)
Ceiling:at least 12,000 feet AGL
Clouds: scattered clouds at 3000 feet AGL
Text:VTUD 190400Z 27005KT 230V330 9999 FEW025 30/24 Q1008 NOSIG
Temperature: 30.0°C ( 86°F)
Dewpoint: 24.0°C ( 75°F) [RH = 70%]
Pressure (altimeter):29.76 inches Hg (1008.0 mb)
Winds:from the W (270 degrees) at 6 MPH (5 knots; 2.6 m/s)
Visibility:6 or more sm (10+ km)
Ceiling:at least 12,000 feet AGL
Clouds: few clouds at 2500 feet AGL
Text:VTUD 190300Z VRB04KT 9999 FEW025 30/24 Q1009 NOSIG
Temperature: 30.0°C ( 86°F)
Dewpoint: 24.0°C ( 75°F) [RH = 70%]
Pressure (altimeter):29.79 inches Hg (1009.0 mb)
Winds:variable direction winds at 5 MPH (4 knots; 2.1 m/s)
Visibility:6 or more sm (10+ km)
Ceiling:at least 12,000 feet AGL
Clouds: few clouds at 2500 feet AGL

METAR for:VTUL (Loei Arpt, --, TH)
Text:VTUL 190500Z 28011KT 9999 BKN030 32/23 Q1008 NOSIG
Temperature: 32.0°C ( 90°F)
Dewpoint: 23.0°C ( 73°F) [RH = 59%]
Pressure (altimeter):29.76 inches Hg (1008.0 mb)
Winds:from the W (280 degrees) at 13 MPH (11 knots; 5.7 m/s)
Visibility:6 or more sm (10+ km)
Ceiling:3000 feet AGL
Clouds: broken clouds at 3000 feet AGL
Text:VTUL 190400Z 29008KT 250V320 9999 BKN030 32/24 Q1009 NOSIG
Temperature: 32.0°C ( 90°F)
Dewpoint: 24.0°C ( 75°F) [RH = 63%]
Pressure (altimeter):29.79 inches Hg (1009.0 mb)
Winds:from the WNW (290 degrees) at 9 MPH (8 knots; 4.1 m/s)
Visibility:6 or more sm (10+ km)
Ceiling:3000 feet AGL
Clouds: broken clouds at 3000 feet AGL
Text:VTUL 190300Z 28010KT 250V320 9999 BKN030 31/23 Q1009 NOSIG
Temperature: 31.0°C ( 88°F)
Dewpoint: 23.0°C ( 73°F) [RH = 63%]
Pressure (altimeter):29.79 inches Hg (1009.0 mb)
Winds:from the W (280 degrees) at 12 MPH (10 knots; 5.1 m/s)
Visibility:6 or more sm (10+ km)
Ceiling:3000 feet AGL
Clouds: broken clouds at 3000 feet AGL

METAR for:VTUI (Sakon Nakhon Arpt, --, TH)
Text:VTUI 190500Z 25006KT 220V290 9999 BKN030 31/24 Q1007 NOSIG
Temperature: 31.0°C ( 88°F)
Dewpoint: 24.0°C ( 75°F) [RH = 66%]
Pressure (altimeter):29.73 inches Hg (1007.0 mb)
Winds:from the WSW (250 degrees) at 7 MPH (6 knots; 3.1 m/s)
Visibility:6 or more sm (10+ km)
Ceiling:3000 feet AGL
Clouds: broken clouds at 3000 feet AGL
Text:VTUI 190400Z 28006KT 220V360 9999 BKN025 31/25 Q1008 NOSIG
Temperature: 31.0°C ( 88°F)
Dewpoint: 25.0°C ( 77°F) [RH = 71%]
Pressure (altimeter):29.76 inches Hg (1008.0 mb)
Winds:from the W (280 degrees) at 7 MPH (6 knots; 3.1 m/s)
Visibility:6 or more sm (10+ km)
Ceiling:2500 feet AGL
Clouds: broken clouds at 2500 feet AGL
Text:VTUI 190300Z 26005KT 220V330 9999 SCT030 30/25 Q1008 NOSIG
Temperature: 30.0°C ( 86°F)
Dewpoint: 25.0°C ( 77°F) [RH = 75%]
Pressure (altimeter):29.76 inches Hg (1008.0 mb)
Winds:from the W (260 degrees) at 6 MPH (5 knots; 2.6 m/s)
Visibility:6 or more sm (10+ km)
Ceiling:at least 12,000 feet AGL
Clouds: scattered clouds at 3000 feet AGL

METAR for:VTUW (Nakhon Phanom Arpt, --, TH)
Text:VTUW 190500Z 27007KT 210V330 9999 BKN030 33/26 Q1007 NOSIG
Temperature: 33.0°C ( 91°F)
Dewpoint: 26.0°C ( 79°F) [RH = 67%]
Pressure (altimeter):29.73 inches Hg (1007.0 mb)
Winds:from the W (270 degrees) at 8 MPH (7 knots; 3.6 m/s)
Visibility:6 or more sm (10+ km)
Ceiling:3000 feet AGL
Clouds: broken clouds at 3000 feet AGL
Text:VTUW 190400Z VRB05KT 9999 BKN030 32/25 Q1008 NOSIG
Temperature: 32.0°C ( 90°F)
Dewpoint: 25.0°C ( 77°F) [RH = 67%]
Pressure (altimeter):29.76 inches Hg (1008.0 mb)
Winds:variable direction winds at 6 MPH (5 knots; 2.6 m/s)
Visibility:6 or more sm (10+ km)
Ceiling:3000 feet AGL
Clouds: broken clouds at 3000 feet AGL
Text:VTUW 190300Z 27005KT 200V300 9999 BKN025 31/25 Q1008 NOSIG
Temperature: 31.0°C ( 88°F)
Dewpoint: 25.0°C ( 77°F) [RH = 71%]
Pressure (altimeter):29.76 inches Hg (1008.0 mb)
Winds:from the W (270 degrees) at 6 MPH (5 knots; 2.6 m/s)
Visibility:6 or more sm (10+ km)
Ceiling:2500 feet AGL
Clouds: broken clouds at 2500 feet AGL

METAR for:VTBS (Bangkok/Suvarnabhumi, --, TH)
Text:VTBS 190530Z 19010KT 9999 FEW020 34/23 Q1008 NOSIG
Temperature: 34.0°C ( 93°F)
Dewpoint: 23.0°C ( 73°F) [RH = 53%]
Pressure (altimeter):29.76 inches Hg (1008.0 mb)
Winds:from the S (190 degrees) at 12 MPH (10 knots; 5.1 m/s)
Visibility:6 or more sm (10+ km)
Ceiling:at least 12,000 feet AGL
Clouds: few clouds at 2000 feet AGL
Text:VTBS 190500Z 21003KT 9999 FEW020 34/22 Q1008 NOSIG
Temperature: 34.0°C ( 93°F)
Dewpoint: 22.0°C ( 72°F) [RH = 50%]
Pressure (altimeter):29.76 inches Hg (1008.0 mb)
Winds:from the SSW (210 degrees) at 3 MPH (3 knots; 1.5 m/s)
Visibility:6 or more sm (10+ km)
Ceiling:at least 12,000 feet AGL
Clouds: few clouds at 2000 feet AGL
Text:VTBS 190430Z 20005KT 9999 FEW020 34/22 Q1008 NOSIG
Temperature: 34.0°C ( 93°F)
Dewpoint: 22.0°C ( 72°F) [RH = 50%]
Pressure (altimeter):29.76 inches Hg (1008.0 mb)
Winds:from the SSW (200 degrees) at 6 MPH (5 knots; 2.6 m/s)
Visibility:6 or more sm (10+ km)
Ceiling:at least 12,000 feet AGL
Clouds: few clouds at 2000 feet AGL
Text:VTBS 190400Z VRB02KT 9999 FEW020 33/22 Q1009 NOSIG
Temperature: 33.0°C ( 91°F)
Dewpoint: 22.0°C ( 72°F) [RH = 53%]
Pressure (altimeter):29.79 inches Hg (1009.0 mb)
Winds:variable direction winds at 2 MPH (2 knots; 1.0 m/s)
Visibility:6 or more sm (10+ km)
Ceiling:at least 12,000 feet AGL
Clouds: few clouds at 2000 feet AGL
Text:VTBS 190330Z 24003KT 9999 FEW020 32/22 Q1009 NOSIG
Temperature: 32.0°C ( 90°F)
Dewpoint: 22.0°C ( 72°F) [RH = 56%]
Pressure (altimeter):29.79 inches Hg (1009.0 mb)
Winds:from the WSW (240 degrees) at 3 MPH (3 knots; 1.5 m/s)
Visibility:6 or more sm (10+ km)
Ceiling:at least 12,000 feet AGL
Clouds: few clouds at 2000 feet AGL
Text:VTBS 190300Z 26005KT 190V340 9999 FEW020 31/22 Q1009 NOSIG
Temperature: 31.0°C ( 88°F)
Dewpoint: 22.0°C ( 72°F) [RH = 59%]
Pressure (altimeter):29.79 inches Hg (1009.0 mb)
Winds:from the W (260 degrees) at 6 MPH (5 knots; 2.6 m/s)
Visibility:6 or more sm (10+ km)
Ceiling:at least 12,000 feet AGL
Clouds: few clouds at 2000 feet AGL

METAR for:VTBD (Bangkok Intl, --, TH)
Text:VTBD 190530Z 26010KT 230V290 9999 FEW020 34/24 Q1008 NOSIG
Temperature: 34.0°C ( 93°F)
Dewpoint: 24.0°C ( 75°F) [RH = 56%]
Pressure (altimeter):29.76 inches Hg (1008.0 mb)
Winds:from the W (260 degrees) at 12 MPH (10 knots; 5.1 m/s)
Visibility:6 or more sm (10+ km)
Ceiling:at least 12,000 feet AGL
Clouds: few clouds at 2000 feet AGL
Text:VTBD 190500Z 28010KT 210V290 9999 FEW020 34/24 Q1008 NOSIG
Temperature: 34.0°C ( 93°F)
Dewpoint: 24.0°C ( 75°F) [RH = 56%]
Pressure (altimeter):29.76 inches Hg (1008.0 mb)
Winds:from the W (280 degrees) at 12 MPH (10 knots; 5.1 m/s)
Visibility:6 or more sm (10+ km)
Ceiling:at least 12,000 feet AGL
Clouds: few clouds at 2000 feet AGL
Text:VTBD 190430Z 29011KT 270V330 9999 FEW020 33/24 Q1009 NOSIG
Temperature: 33.0°C ( 91°F)
Dewpoint: 24.0°C ( 75°F) [RH = 59%]
Pressure (altimeter):29.79 inches Hg (1009.0 mb)
Winds:from the WNW (290 degrees) at 13 MPH (11 knots; 5.7 m/s)
Visibility:6 or more sm (10+ km)
Ceiling:at least 12,000 feet AGL
Clouds: few clouds at 2000 feet AGL
Text:VTBD 190400Z 29010KT 260V340 9999 FEW020 34/23 Q1009 NOSIG
Temperature: 34.0°C ( 93°F)
Dewpoint: 23.0°C ( 73°F) [RH = 53%]
Pressure (altimeter):29.79 inches Hg (1009.0 mb)
Winds:from the WNW (290 degrees) at 12 MPH (10 knots; 5.1 m/s)
Visibility:6 or more sm (10+ km)
Ceiling:at least 12,000 feet AGL
Clouds: few clouds at 2000 feet AGL
Text:VTBD 190330Z 27011KT 220V310 9999 FEW020 33/23 Q1009 NOSIG
Temperature: 33.0°C ( 91°F)
Dewpoint: 23.0°C ( 73°F) [RH = 56%]
Pressure (altimeter):29.79 inches Hg (1009.0 mb)
Winds:from the W (270 degrees) at 13 MPH (11 knots; 5.7 m/s)
Visibility:6 or more sm (10+ km)
Ceiling:at least 12,000 feet AGL
Clouds: few clouds at 2000 feet AGL
Text:VTBD 190300Z 23006KT 160V250 9999 FEW020 32/23 Q1010 NOSIG
Temperature: 32.0°C ( 90°F)
Dewpoint: 23.0°C ( 73°F) [RH = 59%]
Pressure (altimeter):29.82 inches Hg (1010.0 mb)
Winds:from the SW (230 degrees) at 7 MPH (6 knots; 3.1 m/s)
Visibility:6 or more sm (10+ km)
Ceiling:at least 12,000 feet AGL
Clouds: few clouds at 2000 feet AGL